Terminal Aerodrome Forecast
Issued by NWS

Home | Current Version | Previous Version | Graphics & Text | Print | Product List | Glossary On
Versions: 1 2 3 4 5 6 7 8 9 10 11 12 13 14 15 16 17 18 19 20 21 22 23 24 25
620
FTUS43 KABR 062131 AAA
TAFPIR
TAF AMD
KPIR 062131Z 0622/0718 29025KT P6SM OVC023
     FM062300 30021G30KT P6SM SCT025
     FM070100 30019G27KT P6SM SCT250
     FM070300 30018G25KT P6SM FEW050
     FM071500 31020G29KT P6SM BKN015=

USA.gov is the U.S. government's official web portal to all federal, state and local government web resources and services.